createdAt,value
2023-04-30T00:01:05.543Z,92.98
2023-04-30T00:05:09.457Z,91.02
2023-04-30T00:09:12.647Z,90.01
2023-04-30T00:13:17.129Z,92.30
2023-04-30T00:17:19.936Z,93.22
2023-04-30T00:21:22.641Z,92.24
2023-04-30T00:25:25.746Z,91.09
2023-04-30T00:29:29.720Z,92.28
2023-04-30T00:33:32.385Z,92.79
2023-04-30T00:37:35.321Z,93.73
2023-04-30T00:41:38.614Z,93.02
2023-04-30T00:45:42.624Z,91.35
2023-04-30T00:49:45.615Z,90.64
2023-04-30T00:53:48.301Z,91.32
2023-04-30T00:57:51.715Z,91.93
2023-04-30T01:01:56.387Z,94.81
2023-04-30T01:05:59.184Z,94.97
2023-04-30T01:10:02.437Z,93.04
2023-04-30T01:14:10.112Z,93.41
2023-04-30T01:18:16.683Z,94.57
2023-04-30T01:22:37.170Z,95.71
2023-04-30T01:26:52.340Z,95.71
2023-04-30T01:30:56.728Z,94.79
2023-04-30T01:35:00.601Z,93.61
2023-04-30T01:39:15.614Z,95.54
2023-04-30T01:43:21.505Z,95.35
2023-04-30T01:47:33.232Z,92.98
2023-04-30T01:51:41.294Z,93.86
2023-04-30T01:55:45.364Z,94.34
2023-04-30T01:59:48.198Z,94.00
2023-04-30T02:03:52.531Z,92.25
2023-04-30T02:07:55.478Z,92.71
2023-04-30T02:11:58.400Z,93.82
2023-04-30T02:16:01.161Z,93.54
2023-04-30T02:20:06.247Z,92.91
2023-04-30T02:24:08.987Z,94.00
2023-04-30T02:28:11.961Z,92.65
2023-04-30T02:32:14.790Z,91.93
2023-04-30T02:36:18.888Z,91.70
2023-04-30T02:40:21.734Z,92.94
2023-04-30T02:44:24.538Z,91.89
2023-04-30T02:48:27.433Z,92.76
2023-04-30T02:52:31.725Z,91.84
2023-04-30T02:56:34.900Z,93.94
2023-04-30T03:00:37.752Z,95.31
2023-04-30T03:04:41.013Z,93.81
2023-04-30T03:08:45.280Z,95.30
2023-04-30T03:12:48.084Z,94.51
2023-04-30T03:16:50.992Z,95.00
2023-04-30T03:20:53.695Z,92.45
2023-04-30T03:24:57.866Z,91.24
2023-04-30T03:29:02.094Z,92.47
2023-04-30T03:33:06.636Z,89.42
2023-04-30T03:37:09.647Z,91.67
2023-04-30T03:41:13.705Z,90.86
2023-04-30T03:45:16.519Z,90.58
2023-04-30T03:49:19.188Z,92.02
2023-04-30T03:53:22.121Z,88.83
2023-04-30T03:57:26.201Z,91.18
2023-04-30T04:01:30.790Z,90.47
2023-04-30T04:05:33.728Z,90.86
2023-04-30T04:09:36.483Z,89.52
2023-04-30T04:13:41.063Z,89.86
2023-04-30T04:17:43.907Z,90.74
2023-04-30T04:21:46.689Z,90.40
2023-04-30T04:25:50.940Z,92.58
2023-04-30T04:29:55.571Z,91.55
2023-04-30T04:34:00.654Z,89.78
2023-04-30T04:38:03.499Z,91.28
2023-04-30T04:42:06.198Z,91.30
2023-04-30T04:46:12.983Z,90.85
2023-04-30T04:50:17.490Z,89.73
2023-04-30T04:54:21.266Z,89.03
2023-04-30T04:58:24.194Z,89.82
2023-04-30T05:02:28.306Z,90.83
2023-04-30T05:06:32.190Z,87.03
2023-04-30T05:10:35.304Z,88.70
2023-04-30T05:14:38.277Z,89.88
2023-04-30T05:18:42.296Z,88.78
2023-04-30T05:22:45.042Z,89.92
2023-04-30T05:26:47.683Z,89.08
2023-04-30T05:30:50.423Z,86.00
2023-04-30T05:34:54.420Z,88.54
2023-04-30T05:38:57.215Z,86.00
2023-04-30T05:42:59.887Z,86.05
2023-04-30T05:47:02.861Z,83.21
2023-04-30T05:51:07.560Z,81.83
2023-04-30T05:55:11.351Z,67.05
2023-04-30T05:59:14.019Z,64.91
2023-04-30T06:03:16.725Z,65.91
2023-04-30T06:07:20.952Z,62.91
2023-04-30T06:11:25.642Z,59.14
2023-04-30T06:15:28.818Z,60.74
2023-04-30T06:19:31.597Z,61.56
2023-04-30T06:23:35.724Z,65.88
2023-04-30T06:27:38.525Z,71.52
2023-04-30T06:31:41.272Z,70.82
2023-04-30T06:35:43.965Z,69.54
2023-04-30T06:39:47.955Z,69.19
2023-04-30T06:43:50.651Z,70.01
2023-04-30T06:47:53.523Z,72.07
2023-04-30T06:51:58.515Z,70.75
2023-04-30T06:56:02.777Z,67.16
2023-04-30T07:00:06.470Z,70.25
2023-04-30T07:04:09.152Z,71.68
2023-04-30T07:08:13.051Z,68.81
2023-04-30T07:12:17.441Z,69.48
2023-04-30T07:16:20.155Z,71.04
2023-04-30T07:20:22.885Z,71.82
2023-04-30T07:24:26.165Z,70.43
2023-04-30T07:28:30.484Z,69.65
2023-04-30T07:32:33.872Z,65.42
2023-04-30T07:36:38.522Z,64.17
2023-04-30T07:40:41.272Z,65.15
2023-04-30T07:44:46.260Z,70.31
2023-04-30T07:48:49.055Z,64.58
2023-04-30T07:52:51.751Z,64.99
2023-04-30T07:56:56.913Z,63.77
2023-04-30T08:01:01.169Z,65.47
2023-04-30T08:05:04.501Z,64.08
2023-04-30T08:09:07.565Z,61.77
2023-04-30T08:13:10.506Z,65.98
2023-04-30T08:17:14.594Z,58.98
2023-04-30T08:21:18.000Z,61.95
2023-04-30T08:25:20.700Z,60.60
2023-04-30T08:29:23.409Z,61.58
2023-04-30T08:33:27.892Z,59.64
2023-04-30T08:37:30.861Z,61.97
2023-04-30T08:41:34.480Z,59.58
2023-04-30T08:45:38.188Z,61.13
2023-04-30T08:49:42.953Z,63.70
2023-04-30T08:53:46.294Z,59.47
2023-04-30T08:57:48.813Z,62.27
2023-04-30T09:01:53.762Z,59.51
2023-04-30T09:05:58.917Z,57.28
2023-04-30T09:10:03.047Z,62.98
2023-04-30T09:14:05.998Z,61.28
2023-04-30T09:18:10.725Z,60.19
2023-04-30T09:22:25.091Z,65.22
2023-04-30T09:26:29.203Z,63.20
2023-04-30T09:30:33.787Z,62.92
2023-04-30T09:34:36.622Z,58.66
2023-04-30T09:38:40.871Z,62.53
2023-04-30T09:42:59.653Z,63.39
2023-04-30T09:47:02.643Z,60.61
2023-04-30T09:51:06.426Z,64.25
2023-04-30T09:55:11.237Z,59.33
2023-04-30T09:59:18.330Z,60.57
2023-04-30T10:03:22.877Z,58.38
2023-04-30T10:07:26.305Z,65.03
2023-04-30T10:11:34.383Z,66.28
2023-04-30T10:15:40.159Z,57.76
2023-04-30T10:19:48.016Z,62.95
2023-04-30T10:23:51.532Z,60.94
2023-04-30T10:27:55.828Z,60.30
2023-04-30T10:31:59.154Z,55.93
2023-04-30T10:36:04.754Z,61.37
2023-04-30T10:40:09.767Z,62.97
2023-04-30T10:44:14.227Z,60.26
2023-04-30T10:48:24.408Z,55.97
2023-04-30T10:52:28.951Z,56.71
2023-04-30T10:56:32.841Z,59.24
2023-04-30T11:00:37.271Z,55.59
2023-04-30T11:05:10.523Z,50.47
2023-04-30T11:09:13.747Z,51.93
2023-04-30T11:13:16.403Z,54.73
2023-04-30T11:17:25.377Z,59.22
2023-04-30T11:21:28.170Z,57.90
2023-04-30T11:25:40.923Z,58.71
2023-04-30T11:29:46.613Z,57.95
2023-04-30T11:33:50.880Z,57.90
2023-04-30T11:37:56.837Z,60.01
2023-04-30T11:41:59.847Z,61.30
2023-04-30T11:46:08.284Z,54.80
2023-04-30T11:50:14.341Z,56.85
2023-04-30T11:54:18.552Z,51.56
2023-04-30T11:58:21.256Z,51.94
2023-04-30T12:02:24.484Z,55.17
2023-04-30T12:06:30.264Z,52.11
2023-04-30T12:10:33.628Z,52.05
2023-04-30T12:14:37.182Z,51.53
2023-04-30T12:18:39.979Z,54.48
2023-04-30T12:22:44.841Z,49.44
2023-04-30T12:26:48.175Z,51.19
2023-04-30T12:30:50.965Z,56.52
2023-04-30T12:34:59.814Z,50.13
2023-04-30T12:39:08.771Z,55.46
2023-04-30T12:43:11.742Z,56.67
2023-04-30T12:47:16.984Z,54.33
2023-04-30T12:51:21.230Z,52.03
2023-04-30T12:55:27.023Z,56.31
2023-04-30T12:59:30.266Z,59.87
2023-04-30T13:03:33.309Z,54.27
2023-04-30T13:07:40.496Z,57.19
2023-04-30T13:11:44.715Z,53.61
2023-04-30T13:15:47.573Z,54.91
2023-04-30T13:19:50.512Z,52.70
2023-04-30T13:23:54.875Z,53.70
2023-04-30T13:28:00.457Z,53.01
2023-04-30T13:32:04.204Z,50.04
2023-04-30T13:36:07.340Z,49.86
2023-04-30T13:40:11.146Z,50.32
2023-04-30T13:44:16.866Z,56.58
2023-04-30T13:48:19.663Z,54.55
2023-04-30T13:52:22.547Z,49.46
2023-04-30T13:56:25.478Z,49.17
2023-04-30T14:00:29.641Z,49.68
2023-04-30T14:04:32.596Z,46.33
2023-04-30T14:08:35.345Z,46.10
2023-04-30T14:12:38.592Z,47.04
2023-04-30T14:16:42.814Z,52.00
2023-04-30T14:20:45.618Z,53.66
2023-04-30T14:24:48.373Z,53.99
2023-04-30T14:28:51.486Z,52.87
2023-04-30T14:32:55.980Z,51.87
2023-04-30T14:37:01.964Z,46.94
2023-04-30T14:41:04.888Z,49.66
2023-04-30T14:45:08.136Z,52.17
2023-04-30T14:49:12.743Z,51.93
2023-04-30T14:53:15.359Z,48.94
2023-04-30T14:57:19.700Z,51.50
2023-04-30T15:01:22.766Z,48.56
2023-04-30T15:05:27.025Z,51.04
2023-04-30T15:09:29.736Z,48.56
2023-04-30T15:13:33.070Z,48.79
2023-04-30T15:17:37.056Z,47.95
2023-04-30T15:21:41.364Z,46.38
2023-04-30T15:25:44.456Z,48.35
2023-04-30T15:29:47.600Z,48.58
2023-04-30T15:33:50.739Z,47.26
2023-04-30T15:37:55.276Z,47.73
2023-04-30T15:41:58.257Z,50.92
2023-04-30T15:46:00.865Z,49.32
2023-04-30T15:50:03.578Z,48.97
2023-04-30T15:54:10.912Z,49.78
2023-04-30T15:58:14.382Z,53.93
2023-04-30T16:02:17.127Z,55.29
2023-04-30T16:06:20.662Z,49.12
2023-04-30T16:10:24.991Z,47.75
2023-04-30T16:14:27.754Z,57.73
2023-04-30T16:18:30.807Z,51.62
2023-04-30T16:22:34.149Z,50.78
2023-04-30T16:26:38.589Z,53.40
2023-04-30T16:30:41.792Z,52.21
2023-04-30T16:34:44.394Z,56.20
2023-04-30T16:38:47.521Z,49.62
2023-04-30T16:42:52.478Z,49.83
2023-04-30T16:46:56.973Z,57.14
2023-04-30T16:50:59.841Z,55.93
2023-04-30T16:55:05.122Z,63.34
2023-04-30T16:59:09.635Z,58.21
2023-04-30T17:03:12.901Z,60.19
2023-04-30T17:07:17.782Z,63.23
2023-04-30T17:11:23.310Z,63.99
2023-04-30T17:15:27.459Z,62.39
2023-04-30T17:19:30.168Z,64.55
2023-04-30T17:23:32.979Z,68.17
2023-04-30T17:27:35.760Z,63.88
2023-04-30T17:31:40.218Z,68.00
2023-04-30T17:35:42.995Z,63.79
2023-04-30T17:39:46.455Z,63.63
2023-04-30T17:43:50.408Z,64.84
2023-04-30T17:47:54.957Z,63.20
2023-04-30T17:51:59.147Z,62.47
2023-04-30T17:56:02.333Z,64.76
2023-04-30T18:00:07.216Z,69.92
2023-04-30T18:04:11.549Z,70.33
2023-04-30T18:08:16.695Z,71.19
2023-04-30T18:12:25.418Z,72.00
2023-04-30T18:16:29.071Z,72.95
2023-04-30T18:20:33.662Z,74.04
2023-04-30T18:24:42.946Z,72.36
2023-04-30T18:28:46.507Z,75.14
2023-04-30T18:32:52.806Z,75.32
2023-04-30T18:36:57.877Z,74.36
2023-04-30T18:41:01.116Z,76.60
2023-04-30T18:45:04.217Z,77.82
2023-04-30T18:49:06.901Z,78.85
2023-04-30T18:53:11.224Z,79.09
2023-04-30T18:57:16.342Z,79.05
2023-04-30T19:01:22.341Z,81.06
2023-04-30T19:05:25.082Z,81.00
2023-04-30T19:09:29.693Z,83.07
2023-04-30T19:13:32.688Z,81.64
2023-04-30T19:17:35.623Z,84.92
2023-04-30T19:21:38.760Z,83.14
2023-04-30T19:25:43.324Z,84.41
2023-04-30T19:29:47.176Z,81.30
2023-04-30T19:33:50.206Z,86.27
2023-04-30T19:37:53.155Z,86.64
2023-04-30T19:41:58.062Z,83.96
2023-04-30T19:46:02.174Z,81.21
2023-04-30T19:50:05.630Z,84.65
2023-04-30T19:54:14.046Z,85.13
2023-04-30T19:58:18.362Z,85.63
2023-04-30T20:02:21.803Z,87.78
2023-04-30T20:06:24.567Z,86.92
2023-04-30T20:10:27.361Z,88.68
2023-04-30T20:14:31.967Z,89.56
2023-04-30T20:18:35.246Z,88.78
2023-04-30T20:22:38.250Z,87.16
2023-04-30T20:26:42.189Z,85.95
2023-04-30T20:30:48.048Z,89.24
2023-04-30T20:34:51.388Z,86.67
2023-04-30T20:38:55.994Z,87.42
2023-04-30T20:42:58.981Z,90.41
2023-04-30T20:47:05.512Z,86.36
2023-04-30T20:51:08.812Z,87.83
2023-04-30T20:55:12.286Z,90.23
2023-04-30T20:59:15.440Z,88.74
2023-04-30T21:03:19.790Z,89.36
2023-04-30T21:07:22.908Z,87.33
2023-04-30T21:11:25.995Z,89.13
2023-04-30T21:15:30.757Z,90.37
2023-04-30T21:19:35.325Z,87.40
2023-04-30T21:23:38.135Z,86.73
2023-04-30T21:27:40.913Z,87.99
2023-04-30T21:31:46.626Z,88.27
2023-04-30T21:35:51.129Z,87.41
2023-04-30T21:39:55.694Z,88.35
2023-04-30T21:43:59.726Z,87.95
2023-04-30T21:48:02.536Z,90.93
2023-04-30T21:52:08.358Z,91.65
2023-04-30T21:56:12.428Z,89.04
2023-04-30T22:00:17.383Z,91.84
2023-04-30T22:04:21.472Z,92.58
2023-04-30T22:08:25.754Z,91.17
2023-04-30T22:12:28.622Z,91.68
2023-04-30T22:16:33.083Z,90.73
2023-04-30T22:20:36.336Z,90.44
2023-04-30T22:24:41.056Z,93.13
2023-04-30T22:28:44.045Z,92.68
2023-04-30T22:32:46.917Z,91.05
2023-04-30T22:36:49.964Z,89.44
2023-04-30T22:40:54.227Z,92.68
2023-04-30T22:44:56.907Z,91.57
2023-04-30T22:48:59.655Z,90.86
2023-04-30T22:53:02.695Z,90.65
2023-04-30T22:57:06.892Z,90.99
2023-04-30T23:01:09.668Z,91.14
2023-04-30T23:05:13.181Z,91.79
2023-04-30T23:09:16.617Z,89.78
2023-04-30T23:13:20.777Z,92.20
2023-04-30T23:17:24.136Z,94.06
2023-04-30T23:21:26.869Z,92.64
2023-04-30T23:25:29.787Z,91.21
2023-04-30T23:29:36.165Z,92.13
2023-04-30T23:33:39.354Z,91.04
2023-04-30T23:37:42.189Z,90.87
2023-04-30T23:41:45.103Z,91.60
2023-04-30T23:45:49.770Z,96.57
2023-04-30T23:49:52.904Z,93.27
2023-04-30T23:53:55.649Z,94.56
2023-04-30T23:57:58.462Z,94.65
